Alges — CSPH — position and weather

sailwx.info

Track history (hours):
 
Tides and Currents Weather Stations Pressure Air Temp Water Temp Dewpoint Dewpoint Depression Visibility Wind Speed Wind Dir Waves Ship Positions

Alges

Last reported at 2015-Apr-10 16:33 UTC. Time now 2015-Apr-18 07:20 UTC.
Position N 38°41' W 009°09'.

Length 45 m; draft 24.8 m.

Type: Passenger vessel. MMSI: 263700008.

Date/timePositionNaut miles runAvg speedWind from/ knotsBaromVisibWave heightAir tempDewpointWater temp
2015-Apr-10 16:33N 38°41' W 009°09'0 0.0
2015-Apr-10 09:05N 38°41' W 009°09'0 0.0
2015-Apr-10 08:32N 38°41' W 009°09'1 0.4
2015-Apr-10 06:33N 38°42' W 009°09'1 0.7
2015-Apr-10 05:33N 38°41' W 009°09'1 0.1
2015-Apr-09 15:33N 38°41' W 009°08'1 0.4
2015-Apr-09 13:33N 38°41' W 009°09'0 0.0
2015-Apr-08 15:04N 38°41' W 009°09'0 0.0
2015-Apr-08 14:29N 38°41' W 009°09'0 0.1
2015-Apr-08 13:26N 38°41' W 009°09'0 0.1
2015-Apr-08 10:34N 38°41' W 009°09'3 3.2
2015-Apr-08 09:33N 38°39' W 009°06'3 0.1
2015-Apr-07 10:17N 38°41' W 009°09'0 0.0
2015-Apr-07 09:31N 38°41' W 009°09'0 0.0
2015-Apr-07 08:30N 38°41' W 009°09'0 0.0
2015-Apr-06 16:22N 38°41' W 009°09'0 0.0
2015-Apr-06 15:33N 38°41' W 009°09'0 0.0
2015-Apr-06 14:33N 38°41' W 009°09'0 0.0
2015-Apr-06 13:33N 38°41' W 009°09'0 0.0
2015-Apr-06 12:33N 38°41' W 009°09'0 0.0
2015-Apr-06 10:30N 38°41' W 009°09'0 0.0
2015-Apr-06 09:24N 38°41' W 009°09'0 0.0
2015-Apr-06 08:33N 38°41' W 009°09'0 0.0
2015-Apr-06 07:33N 38°41' W 009°09'0 0.0
2015-Apr-06 06:34N 38°41' W 009°09'0 0.0
2015-Apr-05 07:33N 38°41' W 009°09'  
2015-Apr-02 14:06N 38°41' W 009°09'1 1.6
2015-Apr-02 13:34N 38°42' W 009°09'4 3.6
2015-Apr-02 12:33N 38°39' W 009°06'0 0.0
2015-Apr-02 11:32N 38°39' W 009°06'4 3.7
2015-Apr-02 10:33N 38°42' W 009°08'4 3.5
2015-Apr-02 09:33N 38°39' W 009°06'0 0.3
2015-Apr-02 08:33N 38°39' W 009°06'4 3.8
2015-Apr-02 07:33N 38°42' W 009°09'2 2.0
2015-Apr-02 06:33N 38°40' W 009°08'2 2.1
2015-Apr-02 05:33N 38°39' W 009°06'0 0.0
2015-Apr-01 19:21N 38°39' W 009°06'1 0.8
2015-Apr-01 18:34N 38°39' W 009°06'3 0.3
2015-Apr-01 09:32N 38°41' W 009°09'3 3.1
2015-Apr-01 08:33N 38°39' W 009°06'4 3.8
2015-Apr-01 07:33N 38°42' W 009°09'2 1.9
2015-Apr-01 06:34N 38°41' W 009°08'2 2.3
2015-Apr-01 05:33N 38°39' W 009°06'0 0.0
2015-Mar-31 19:27N 38°39' W 009°06'1 0.6
2015-Mar-31 18:33N 38°39' W 009°06'0 0.5
2015-Mar-31 17:33N 38°39' W 009°06'4 3.7
2015-Mar-31 16:33N 38°42' W 009°08'  
Track history (hours):
 
Tides and Currents Weather Stations Pressure Air Temp Water Temp Dewpoint Dewpoint Depression Visibility Wind Speed Wind Dir Waves Ship Positions

Alges

Last reported at 2015-Apr-10 16:33 UTC. Time now 2015-Apr-18 07:20 UTC.
Position N 38°41' W 009°09'.

Length 45 m; draft 24.8 m.

Type: Passenger vessel. MMSI: 263700008.

Date/timePositionNaut miles runAvg speedWind from/ knotsBaromVisibWave heightAir tempDewpointWater temp
2015-Apr-10 16:33N 38°41' W 009°09'0 0.0
2015-Apr-10 09:05N 38°41' W 009°09'0 0.0
2015-Apr-10 08:32N 38°41' W 009°09'1 0.4
2015-Apr-10 06:33N 38°42' W 009°09'1 0.7
2015-Apr-10 05:33N 38°41' W 009°09'1 0.1
2015-Apr-09 15:33N 38°41' W 009°08'1 0.4
2015-Apr-09 13:33N 38°41' W 009°09'0 0.0
2015-Apr-08 15:04N 38°41' W 009°09'0 0.0
2015-Apr-08 14:29N 38°41' W 009°09'0 0.1
2015-Apr-08 13:26N 38°41' W 009°09'0 0.1
2015-Apr-08 10:34N 38°41' W 009°09'3 3.2
2015-Apr-08 09:33N 38°39' W 009°06'3 0.1
2015-Apr-07 10:17N 38°41' W 009°09'0 0.0
2015-Apr-07 09:31N 38°41' W 009°09'0 0.0
2015-Apr-07 08:30N 38°41' W 009°09'0 0.0
2015-Apr-06 16:22N 38°41' W 009°09'0 0.0
2015-Apr-06 15:33N 38°41' W 009°09'0 0.0
2015-Apr-06 14:33N 38°41' W 009°09'0 0.0
2015-Apr-06 13:33N 38°41' W 009°09'0 0.0
2015-Apr-06 12:33N 38°41' W 009°09'0 0.0
2015-Apr-06 10:30N 38°41' W 009°09'0 0.0
2015-Apr-06 09:24N 38°41' W 009°09'0 0.0
2015-Apr-06 08:33N 38°41' W 009°09'0 0.0
2015-Apr-06 07:33N 38°41' W 009°09'0 0.0
2015-Apr-06 06:34N 38°41' W 009°09'0 0.0
2015-Apr-05 07:33N 38°41' W 009°09'  
2015-Apr-02 14:06N 38°41' W 009°09'1 1.6
2015-Apr-02 13:34N 38°42' W 009°09'4 3.6
2015-Apr-02 12:33N 38°39' W 009°06'0 0.0
2015-Apr-02 11:32N 38°39' W 009°06'4 3.7
2015-Apr-02 10:33N 38°42' W 009°08'4 3.5
2015-Apr-02 09:33N 38°39' W 009°06'0 0.3
2015-Apr-02 08:33N 38°39' W 009°06'4 3.8
2015-Apr-02 07:33N 38°42' W 009°09'2 2.0
2015-Apr-02 06:33N 38°40' W 009°08'2 2.1
2015-Apr-02 05:33N 38°39' W 009°06'0 0.0
2015-Apr-01 19:21N 38°39' W 009°06'1 0.8
2015-Apr-01 18:34N 38°39' W 009°06'3 0.3
2015-Apr-01 09:32N 38°41' W 009°09'3 3.1
2015-Apr-01 08:33N 38°39' W 009°06'4 3.8
2015-Apr-01 07:33N 38°42' W 009°09'2 1.9
2015-Apr-01 06:34N 38°41' W 009°08'2 2.3
2015-Apr-01 05:33N 38°39' W 009°06'0 0.0
2015-Mar-31 19:27N 38°39' W 009°06'1 0.6
2015-Mar-31 18:33N 38°39' W 009°06'0 0.5
2015-Mar-31 17:33N 38°39' W 009°06'4 3.7
2015-Mar-31 16:33N 38°42' W 009°08'  

Dump ship's entire track history